Tinerfe — EAUU — position and weather

sailwx.info

Track history (hours):
 
Tides and Currents Weather Stations Pressure Air Temp Water Temp Dewpoint Dewpoint Depression Visibility Wind Speed Wind Dir Waves Ship Positions

Tinerfe

Last reported at 2018-Jun-23 21:38 UTC. Time now 2018-Jun-25 02:19 UTC.
Position N 40°03' E 002°26'.

Length 144 m; draft 5.7 m.

Type: Ship (hazmat cat B). MMSI: 224025000.

Date/timePositionNaut miles runAvg speedWind from/ knotsBaromVisibWave heightAir tempDewpointWater temp
2018-Jun-23 21:38N 40°03' E 002°26'313.3
2018-Jun-23 21:22N 40°04' E 002°30'513.4
2018-Jun-23 21:00N 40°04' E 002°37'1013.3
2018-Jun-23 20:15N 40°04' E 002°50'54 1.9
2018-Jun-22 15:34N 39°23' E 003°36'112.9
2018-Jun-22 15:28N 39°22' E 003°34'713.1
2018-Jun-22 14:56N 39°18' E 003°27'1013.2
2018-Jun-22 14:12N 39°12' E 003°17'313.3
2018-Jun-22 14:00N 39°11' E 003°14'713.3
2018-Jun-22 13:27N 39°06' E 003°07'613.2
2018-Jun-22 13:00N 39°03' E 003°00'612.6
2018-Jun-22 12:30N 39°02' E 002°53'713.0
2018-Jun-22 12:00N 39°01' E 002°44'713.1
2018-Jun-22 11:30N 39°00' E 002°36'713.3
2018-Jun-22 11:00N 38°59' E 002°27'713.3
2018-Jun-22 10:30N 38°58' E 002°19'713.6
2018-Jun-22 10:00N 38°57' E 002°10'713.4
2018-Jun-22 09:30N 38°57' E 002°02'713.2
2018-Jun-22 09:00N 38°56' E 001°53'1213.1
2018-Jun-22 08:03N 38°55' E 001°37'113.1
2018-Jun-22 07:59N 38°55' E 001°36'612.9
2018-Jun-22 07:30N 38°54' E 001°28'1 2.2
2018-Jun-22 07:00N 38°54' E 001°27'0 0.0
2018-Jun-22 06:24N 38°54' E 001°27'0 0.0
2018-Jun-22 06:00N 38°54' E 001°27'0 0.0
2018-Jun-22 05:24N 38°54' E 001°27'0 0.0
2018-Jun-22 05:00N 38°54' E 001°27'0 0.0
2018-Jun-22 04:30N 38°54' E 001°27'0 0.0
2018-Jun-22 04:00N 38°54' E 001°27'0 0.0
2018-Jun-22 03:27N 38°54' E 001°27'0 0.0
2018-Jun-22 03:00N 38°54' E 001°27'0 0.0
2018-Jun-22 02:30N 38°54' E 001°27'0 0.0
2018-Jun-22 02:00N 38°54' E 001°27'0 0.0
2018-Jun-22 01:30N 38°54' E 001°27'0 0.0
2018-Jun-22 01:00N 38°54' E 001°27'0 0.0
2018-Jun-22 00:30N 38°54' E 001°27'0 0.0
2018-Jun-22 00:00N 38°54' E 001°27'0 0.0
2018-Jun-21 23:30N 38°54' E 001°27'0 0.0
2018-Jun-21 23:00N 38°54' E 001°27'0 0.0
2018-Jun-21 22:30N 38°54' E 001°27'0 0.0
2018-Jun-21 22:00N 38°54' E 001°27'0 0.0
2018-Jun-21 21:28N 38°54' E 001°27'0 0.0
2018-Jun-21 20:59N 38°54' E 001°27'0 0.0
2018-Jun-21 20:31N 38°54' E 001°27'0 0.0
2018-Jun-21 19:58N 38°54' E 001°27'0 0.0
2018-Jun-21 19:27N 38°54' E 001°27'0 0.0
2018-Jun-21 19:00N 38°54' E 001°27'0 0.0
2018-Jun-21 18:29N 38°54' E 001°27'0 0.0
2018-Jun-21 18:00N 38°54' E 001°27'0 0.6
2018-Jun-21 17:30N 38°54' E 001°27'2 4.7
2018-Jun-21 17:00N 38°53' E 001°29'2 2.4
2018-Jun-21 16:22N 38°51' E 001°30'1611.8
2018-Jun-21 15:01N 38°36' E 001°37'011.9
2018-Jun-21 15:00N 38°36' E 001°37'712.5
2018-Jun-21 14:29N 38°32' E 001°30'3012.7
2018-Jun-21 12:05N 38°14' E 000°59'412.5
2018-Jun-21 11:44N 38°12' E 000°55'5012.5
2018-Jun-21 07:45N 37°42' E 000°04'312.5
2018-Jun-21 07:28N 37°40' E 000°01'612.3
2018-Jun-21 07:00N 37°37' W 000°05'612.2
2018-Jun-21 06:30N 37°33' W 000°11'612.3
2018-Jun-21 05:59N 37°29' W 000°18'712.2
2018-Jun-21 05:25N 37°25' W 000°25'612.3
2018-Jun-21 04:57N 37°22' W 000°30'512.1
2018-Jun-21 04:30N 37°18' W 000°36'611.7
2018-Jun-21 04:00N 37°14' W 000°41'611.8
2018-Jun-21 03:30N 37°11' W 000°47'611.9
2018-Jun-21 03:00N 37°07' W 000°53'1512.2
2018-Jun-21 01:48N 36°59' W 001°08'412.3
2018-Jun-21 01:26N 36°56' W 001°13'208 4.3
2018-Jun-19 00:53N 36°10' W 005°26'0 0.0
2018-Jun-19 00:30N 36°10' W 005°26'0 0.2
2018-Jun-19 00:00N 36°10' W 005°26'2 3.9
2018-Jun-18 23:28N 36°08' W 005°24'3 6.1
2018-Jun-18 22:58N 36°05' W 005°22'510.1
2018-Jun-18 22:30N 36°05' W 005°16'178 4.2
2018-Jun-17 04:11N 36°47' W 001°42'313.1
2018-Jun-17 03:58N 36°49' W 001°39'1613.0
2018-Jun-17 02:44N 36°59' W 001°24'613.1
2018-Jun-17 02:17N 37°03' W 001°19'513.1
2018-Jun-17 01:53N 37°06' W 001°14'513.2
2018-Jun-17 01:30N 37°10' W 001°09'713.0
2018-Jun-17 00:59N 37°14' W 001°03'612.8
2018-Jun-17 00:30N 37°18' W 000°57'612.8
2018-Jun-17 00:00N 37°23' W 000°51'612.7
2018-Jun-16 23:30N 37°27' W 000°45'612.4
2018-Jun-16 22:59N 37°31' W 000°38'612.7
2018-Jun-16 22:30N 37°35' W 000°33'713.2
2018-Jun-16 22:00N 37°41' W 000°29'613.0
2018-Jun-16 21:30N 37°46' W 000°24'813.0
2018-Jun-16 20:54N 37°53' W 000°19'612.9
2018-Jun-16 20:28N 37°57' W 000°14'613.0
2018-Jun-16 20:00N 38°02' W 000°10'612.7
2018-Jun-16 19:30N 38°07' W 000°06'612.9
2018-Jun-16 19:00N 38°13' W 000°01'612.8
2018-Jun-16 18:30N 38°18' E 000°03'612.6
2018-Jun-16 18:00N 38°24' E 000°07'612.5
2018-Jun-16 17:30N 38°29' E 000°11'612.2
2018-Jun-16 17:00N 38°34' E 000°16'611.9
2018-Jun-16 16:30N 38°39' E 000°20'711.9
2018-Jun-16 15:54N 38°45' E 000°24'612.1
2018-Jun-16 15:24N 38°51' E 000°22'  
Track history (hours):
 
Tides and Currents Weather Stations Pressure Air Temp Water Temp Dewpoint Dewpoint Depression Visibility Wind Speed Wind Dir Waves Ship Positions

Tinerfe

Last reported at 2018-Jun-23 21:38 UTC. Time now 2018-Jun-25 02:19 UTC.
Position N 40°03' E 002°26'.

Length 144 m; draft 5.7 m.

Type: Ship (hazmat cat B). MMSI: 224025000.

Date/timePositionNaut miles runAvg speedWind from/ knotsBaromVisibWave heightAir tempDewpointWater temp
2018-Jun-23 21:38N 40°03' E 002°26'313.3
2018-Jun-23 21:22N 40°04' E 002°30'513.4
2018-Jun-23 21:00N 40°04' E 002°37'1013.3
2018-Jun-23 20:15N 40°04' E 002°50'54 1.9
2018-Jun-22 15:34N 39°23' E 003°36'112.9
2018-Jun-22 15:28N 39°22' E 003°34'713.1
2018-Jun-22 14:56N 39°18' E 003°27'1013.2
2018-Jun-22 14:12N 39°12' E 003°17'313.3
2018-Jun-22 14:00N 39°11' E 003°14'713.3
2018-Jun-22 13:27N 39°06' E 003°07'613.2
2018-Jun-22 13:00N 39°03' E 003°00'612.6
2018-Jun-22 12:30N 39°02' E 002°53'713.0
2018-Jun-22 12:00N 39°01' E 002°44'713.1
2018-Jun-22 11:30N 39°00' E 002°36'713.3
2018-Jun-22 11:00N 38°59' E 002°27'713.3
2018-Jun-22 10:30N 38°58' E 002°19'713.6
2018-Jun-22 10:00N 38°57' E 002°10'713.4
2018-Jun-22 09:30N 38°57' E 002°02'713.2
2018-Jun-22 09:00N 38°56' E 001°53'1213.1
2018-Jun-22 08:03N 38°55' E 001°37'113.1
2018-Jun-22 07:59N 38°55' E 001°36'612.9
2018-Jun-22 07:30N 38°54' E 001°28'1 2.2
2018-Jun-22 07:00N 38°54' E 001°27'0 0.0
2018-Jun-22 06:24N 38°54' E 001°27'0 0.0
2018-Jun-22 06:00N 38°54' E 001°27'0 0.0
2018-Jun-22 05:24N 38°54' E 001°27'0 0.0
2018-Jun-22 05:00N 38°54' E 001°27'0 0.0
2018-Jun-22 04:30N 38°54' E 001°27'0 0.0
2018-Jun-22 04:00N 38°54' E 001°27'0 0.0
2018-Jun-22 03:27N 38°54' E 001°27'0 0.0
2018-Jun-22 03:00N 38°54' E 001°27'0 0.0
2018-Jun-22 02:30N 38°54' E 001°27'0 0.0
2018-Jun-22 02:00N 38°54' E 001°27'0 0.0
2018-Jun-22 01:30N 38°54' E 001°27'0 0.0
2018-Jun-22 01:00N 38°54' E 001°27'0 0.0
2018-Jun-22 00:30N 38°54' E 001°27'0 0.0
2018-Jun-22 00:00N 38°54' E 001°27'0 0.0
2018-Jun-21 23:30N 38°54' E 001°27'0 0.0
2018-Jun-21 23:00N 38°54' E 001°27'0 0.0
2018-Jun-21 22:30N 38°54' E 001°27'0 0.0
2018-Jun-21 22:00N 38°54' E 001°27'0 0.0
2018-Jun-21 21:28N 38°54' E 001°27'0 0.0
2018-Jun-21 20:59N 38°54' E 001°27'0 0.0
2018-Jun-21 20:31N 38°54' E 001°27'0 0.0
2018-Jun-21 19:58N 38°54' E 001°27'0 0.0
2018-Jun-21 19:27N 38°54' E 001°27'0 0.0
2018-Jun-21 19:00N 38°54' E 001°27'0 0.0
2018-Jun-21 18:29N 38°54' E 001°27'0 0.0
2018-Jun-21 18:00N 38°54' E 001°27'0 0.6
2018-Jun-21 17:30N 38°54' E 001°27'2 4.7
2018-Jun-21 17:00N 38°53' E 001°29'2 2.4
2018-Jun-21 16:22N 38°51' E 001°30'1611.8
2018-Jun-21 15:01N 38°36' E 001°37'011.9
2018-Jun-21 15:00N 38°36' E 001°37'712.5
2018-Jun-21 14:29N 38°32' E 001°30'3012.7
2018-Jun-21 12:05N 38°14' E 000°59'412.5
2018-Jun-21 11:44N 38°12' E 000°55'5012.5
2018-Jun-21 07:45N 37°42' E 000°04'312.5
2018-Jun-21 07:28N 37°40' E 000°01'612.3
2018-Jun-21 07:00N 37°37' W 000°05'612.2
2018-Jun-21 06:30N 37°33' W 000°11'612.3
2018-Jun-21 05:59N 37°29' W 000°18'712.2
2018-Jun-21 05:25N 37°25' W 000°25'612.3
2018-Jun-21 04:57N 37°22' W 000°30'512.1
2018-Jun-21 04:30N 37°18' W 000°36'611.7
2018-Jun-21 04:00N 37°14' W 000°41'611.8
2018-Jun-21 03:30N 37°11' W 000°47'611.9
2018-Jun-21 03:00N 37°07' W 000°53'1512.2
2018-Jun-21 01:48N 36°59' W 001°08'412.3
2018-Jun-21 01:26N 36°56' W 001°13'208 4.3
2018-Jun-19 00:53N 36°10' W 005°26'0 0.0
2018-Jun-19 00:30N 36°10' W 005°26'0 0.2
2018-Jun-19 00:00N 36°10' W 005°26'2 3.9
2018-Jun-18 23:28N 36°08' W 005°24'3 6.1
2018-Jun-18 22:58N 36°05' W 005°22'510.1
2018-Jun-18 22:30N 36°05' W 005°16'178 4.2
2018-Jun-17 04:11N 36°47' W 001°42'313.1
2018-Jun-17 03:58N 36°49' W 001°39'1613.0
2018-Jun-17 02:44N 36°59' W 001°24'613.1
2018-Jun-17 02:17N 37°03' W 001°19'513.1
2018-Jun-17 01:53N 37°06' W 001°14'513.2
2018-Jun-17 01:30N 37°10' W 001°09'713.0
2018-Jun-17 00:59N 37°14' W 001°03'612.8
2018-Jun-17 00:30N 37°18' W 000°57'612.8
2018-Jun-17 00:00N 37°23' W 000°51'612.7
2018-Jun-16 23:30N 37°27' W 000°45'612.4
2018-Jun-16 22:59N 37°31' W 000°38'612.7
2018-Jun-16 22:30N 37°35' W 000°33'713.2
2018-Jun-16 22:00N 37°41' W 000°29'613.0
2018-Jun-16 21:30N 37°46' W 000°24'813.0
2018-Jun-16 20:54N 37°53' W 000°19'612.9
2018-Jun-16 20:28N 37°57' W 000°14'613.0
2018-Jun-16 20:00N 38°02' W 000°10'612.7
2018-Jun-16 19:30N 38°07' W 000°06'612.9
2018-Jun-16 19:00N 38°13' W 000°01'612.8
2018-Jun-16 18:30N 38°18' E 000°03'612.6
2018-Jun-16 18:00N 38°24' E 000°07'612.5
2018-Jun-16 17:30N 38°29' E 000°11'612.2
2018-Jun-16 17:00N 38°34' E 000°16'611.9
2018-Jun-16 16:30N 38°39' E 000°20'711.9
2018-Jun-16 15:54N 38°45' E 000°24'612.1
2018-Jun-16 15:24N 38°51' E 000°22'  

Dump ship's entire track history